Marco Polo — C6JZ7 — position and weather

sailwx.info

Track history (hours):
 
Tides and Currents Weather Stations Pressure Air Temp Water Temp Dewpoint Dewpoint Depression Visibility Wind Speed Wind Dir Waves Ship Positions

Marco Polo

Operator: Orient Lines

Last reported at 2014-Dec-21 07:33 UTC. Time now 2014-Dec-21 08:30 UTC.
Position N 51°13' E 004°24'.

Type: Ship. MMSI: 308691456.

Date/timePositionNaut miles runAvg speedWind from/ knotsBaromVisibWave heightAir tempDewpointWater temp
2014-Dec-21 07:33N 51°13' E 004°24'0 0.0
2014-Dec-21 06:33N 51°13' E 004°24'2 2.1
2014-Dec-21 05:33N 51°14' E 004°21'6 6.1
2014-Dec-21 04:34N 51°20' E 004°16'8 7.6
2014-Dec-21 03:34N 51°22' E 004°05'7 6.9
2014-Dec-21 02:32N 51°21' E 003°54'1111.1
2014-Dec-21 01:33N 51°26' E 003°38'1110.5
2014-Dec-21 00:31N 51°33' E 003°25'2311.5
2014-Dec-20 22:33N 51°56' E 003°20'1716.7
2014-Dec-20 21:33N 52°11' E 003°31'3015.1
2014-Dec-20 19:33N 52°31' E 004°08'1413.8
2014-Dec-20 18:33N 52°28' E 004°30'4 3.8
2014-Dec-20 17:34N 52°28' E 004°36'4 4.1
2014-Dec-20 16:34N 52°26' E 004°43'8 7.6
2014-Dec-20 15:34N 52°23' E 004°54'1 0.7
2014-Dec-20 14:33N 52°23' E 004°55'0 0.0
2014-Dec-20 13:33N 52°23' E 004°55'0 0.0
2014-Dec-20 12:32N 52°23' E 004°55'0 0.0
2014-Dec-20 11:32N 52°23' E 004°55'0 0.0
2014-Dec-20 10:31N 52°23' E 004°55'0 0.0
2014-Dec-20 09:28N 52°23' E 004°55'0 0.0
2014-Dec-20 08:34N 52°23' E 004°55'0 0.1
2014-Dec-20 07:33N 52°23' E 004°55'0 0.2
2014-Dec-20 07:15N 52°23' E 004°55'4 5.2
2014-Dec-20 06:33N 52°25' E 004°50'1 6.8
2014-Dec-20 06:23N 52°25' E 004°48'7 9.0
2014-Dec-20 05:34N 52°28' E 004°37'4 4.2
2014-Dec-20 04:33N 52°28' E 004°30'8 7.6
2014-Dec-20 03:33N 52°28' E 004°18'0 0.3
2014-Dec-20 02:33N 52°28' E 004°17'1110.6
2014-Dec-20 01:32N 52°28' E 003°59'8817.4
2014-Dec-19 20:27N 51°40' E 001°59'1416.1
2014-Dec-19 19:33N 51°32' E 001°40'1110.6
2014-Dec-19 18:33N 51°28' E 001°24'1312.9
2014-Dec-19 17:33N 51°30' E 001°03'1716.7
2014-Dec-19 16:34N 51°30' E 000°36'9 9.3
2014-Dec-19 15:33N 51°27' E 000°22'0 0.0
2014-Dec-19 14:33N 51°27' E 000°22'0 0.0
2014-Dec-19 13:33N 51°27' E 000°22'0 0.0
2014-Dec-19 12:33N 51°27' E 000°22'0 0.0
2014-Dec-19 11:33N 51°27' E 000°22'0 0.0
2014-Dec-19 10:33N 51°27' E 000°22'0 0.0
2014-Dec-19 09:33N 51°27' E 000°22'0 0.0
2014-Dec-19 08:33N 51°27' E 000°22'0 0.0
2014-Dec-19 07:33N 51°27' E 000°22'0 0.0
2014-Dec-19 06:34N 51°27' E 000°22'0 0.0
2014-Dec-19 05:34N 51°27' E 000°22'0 0.0
2014-Dec-19 04:34N 51°27' E 000°22'0 0.0
2014-Dec-19 03:33N 51°27' E 000°22'0 0.0
2014-Dec-19 02:33N 51°27' E 000°22'0 0.0
2014-Dec-19 01:34N 51°27' E 000°22'0 0.0
2014-Dec-19 00:34N 51°27' E 000°22'0 0.0
2014-Dec-18 23:33N 51°27' E 000°22'0 0.0
2014-Dec-18 22:34N 51°27' E 000°22'0 0.0
2014-Dec-18 21:34N 51°27' E 000°22'0 0.0
2014-Dec-18 20:33N 51°27' E 000°22'0 0.0
2014-Dec-18 19:33N 51°27' E 000°22'0 0.0
2014-Dec-18 18:34N 51°27' E 000°22'0 0.0
2014-Dec-18 17:34N 51°27' E 000°22'0 0.0
2014-Dec-18 16:34N 51°27' E 000°22'0 0.0
2014-Dec-18 15:34N 51°27' E 000°22'0 0.0
2014-Dec-18 14:33N 51°27' E 000°22'0 0.0
2014-Dec-18 13:34N 51°27' E 000°22'0 0.0
2014-Dec-18 12:34N 51°27' E 000°22'0 0.0
2014-Dec-18 11:34N 51°27' E 000°22'0 0.0
2014-Dec-18 10:34N 51°27' E 000°22'0 0.0
2014-Dec-18 09:34N 51°27' E 000°22'0 0.0
2014-Dec-18 08:34N 51°27' E 000°22'0 0.2
2014-Dec-18 07:34N 51°27' E 000°22'7 7.4
2014-Dec-18 06:33N 51°30' E 000°33'1111.2
2014-Dec-18 05:33N 51°29' E 000°51'1111.1
2014-Dec-18 04:33N 51°29' E 001°09'1212.5
2014-Dec-18 03:33N 51°27' E 001°28'9 9.5
2014-Dec-18 02:34N 51°29' E 001°43'1312.8
2014-Dec-18 01:34N 51°25' E 002°02'1312.7
2014-Dec-18 00:33N 51°22' E 002°22'1312.7
2014-Dec-17 23:34N 51°23' E 002°42'2612.8
2014-Dec-17 21:31N 51°25' E 003°24'1111.1
2014-Dec-17 20:34N 51°26' E 003°41'8 8.3
2014-Dec-17 19:33N 51°20' E 003°49'3 2.5
2014-Dec-17 18:33N 51°17' E 003°50'7 6.9
2014-Dec-17 17:32N 51°10' E 003°48'6 6.2
2014-Dec-17 16:33N 51°05' E 003°44'0 0.3
2014-Dec-17 15:32N 51°05' E 003°44'0 0.0
2014-Dec-17 14:33N 51°05' E 003°44'0 0.0
2014-Dec-17 13:32N 51°05' E 003°44'0 0.0
2014-Dec-17 12:32N 51°05' E 003°44'0 0.0
2014-Dec-17 11:32N 51°05' E 003°44'0 0.0
2014-Dec-17 10:32N 51°05' E 003°44'0 0.0
2014-Dec-17 09:31N 51°05' E 003°44'0 0.0
2014-Dec-17 08:31N 51°05' E 003°44'0 0.0
2014-Dec-17 07:31N 51°05' E 003°44'0 0.0
2014-Dec-17 06:33N 51°05' E 003°44'0 0.5
2014-Dec-17 05:33N 51°05' E 003°44'7 6.7
2014-Dec-17 04:33N 51°11' E 003°48'8 7.5
2014-Dec-17 03:33N 51°19' E 003°50'3 3.0
2014-Dec-17 02:33N 51°21' E 003°47'9 8.7
2014-Dec-17 01:33N 51°26' E 003°36'10 9.9
2014-Dec-17 00:33N 51°34' E 003°25'1211.3
2014-Dec-16 23:30N 51°43' E 003°14'4912.5
2014-Dec-16 19:33N 52°28' E 003°47'1313.3
2014-Dec-16 18:33N 52°31' E 004°08'1212.2
2014-Dec-16 17:33N 52°29' E 004°28'4 4.0
2014-Dec-16 16:32N 52°28' E 004°34'0 0.0
2014-Dec-16 15:31N 52°28' E 004°34'0 0.0
2014-Dec-16 14:31N 52°28' E 004°34'0 0.0
2014-Dec-16 13:31N 52°28' E 004°34'0 0.0
2014-Dec-16 12:34N 52°28' E 004°34'0 0.0
2014-Dec-16 11:33N 52°28' E 004°34'0 0.0
2014-Dec-16 10:33N 52°28' E 004°34'0 0.0
2014-Dec-16 09:33N 52°28' E 004°34'0 0.0
2014-Dec-16 08:33N 52°28' E 004°34'0 0.0
2014-Dec-16 07:33N 52°28' E 004°34'0 0.0
2014-Dec-16 06:33N 52°28' E 004°34'0 0.2
2014-Dec-16 05:33N 52°28' E 004°34'10 9.8
2014-Dec-16 04:33N 52°29' E 004°18'1312.8
2014-Dec-16 03:32N 52°27' E 003°57'7913.2
2014-Dec-15 21:33N 51°51' E 002°02'1313.0
2014-Dec-15 20:33N 51°41' E 001°49'1414.4
2014-Dec-15 19:34N 51°29' E 001°36'1614.2
2014-Dec-15 18:27N 51°29' E 001°10'1314.8
2014-Dec-15 17:33N 51°29' E 000°49'1413.7
2014-Dec-15 16:34N 51°28' E 000°27'4 3.6
2014-Dec-15 15:34N 51°27' E 000°22'0 0.0
2014-Dec-15 14:34N 51°27' E 000°22'0 0.0
2014-Dec-15 13:34N 51°27' E 000°22'0 0.0
2014-Dec-15 12:33N 51°27' E 000°22'0 0.0
2014-Dec-15 11:34N 51°27' E 000°22'0 0.0
2014-Dec-15 10:33N 51°27' E 000°22'0 0.0
2014-Dec-15 09:34N 51°27' E 000°22'0 0.0
2014-Dec-15 08:34N 51°27' E 000°22'0 0.0
2014-Dec-15 07:34N 51°27' E 000°22'0 0.0
2014-Dec-15 06:34N 51°27' E 000°22'0 0.0
2014-Dec-15 05:34N 51°27' E 000°22'0 0.0
2014-Dec-15 04:34N 51°27' E 000°22'0 0.0
2014-Dec-15 03:34N 51°27' E 000°22'0 0.0
2014-Dec-15 02:34N 51°27' E 000°22'0 0.0
2014-Dec-15 01:34N 51°27' E 000°22'0 0.0
2014-Dec-15 00:34N 51°27' E 000°22'0 0.0
2014-Dec-14 23:34N 51°27' E 000°22'0 0.0
2014-Dec-14 22:34N 51°27' E 000°22'0 0.0
2014-Dec-14 21:34N 51°27' E 000°22'0 0.0
2014-Dec-14 20:34N 51°27' E 000°22'0 0.0
2014-Dec-14 19:34N 51°27' E 000°22'0 0.0
2014-Dec-14 18:33N 51°27' E 000°22'0 0.0
2014-Dec-14 17:33N 51°27' E 000°22'0 0.0
2014-Dec-14 16:33N 51°27' E 000°22'0 0.0
2014-Dec-14 15:33N 51°27' E 000°22'0 0.0
2014-Dec-14 14:33N 51°27' E 000°22'0 0.0
2014-Dec-14 13:33N 51°27' E 000°22'0 0.0
2014-Dec-14 12:33N 51°27' E 000°22'0 0.0
2014-Dec-14 11:34N 51°27' E 000°22'0 0.0
2014-Dec-14 10:33N 51°27' E 000°22'0 0.0
2014-Dec-14 09:33N 51°27' E 000°22'0 0.0
2014-Dec-14 08:33N 51°27' E 000°22'0 0.0
2014-Dec-14 07:33N 51°27' E 000°22'0 0.0
2014-Dec-14 06:33N 51°27' E 000°22'0 0.0
2014-Dec-14 05:33N 51°27' E 000°22'0 0.0
2014-Dec-14 04:33N 51°27' E 000°22'0 0.0
2014-Dec-14 03:33N 51°27' E 000°22'0 0.0
2014-Dec-14 02:33N 51°27' E 000°22'0 0.0
2014-Dec-14 01:33N 51°27' E 000°22'0 0.0
2014-Dec-14 00:33N 51°27' E 000°22'0 0.0
2014-Dec-13 23:33N 51°27' E 000°22'0 0.0
2014-Dec-13 22:33N 51°27' E 000°22'0 0.0
2014-Dec-13 21:33N 51°27' E 000°22'0 0.0
2014-Dec-13 20:33N 51°27' E 000°22'0 0.0
2014-Dec-13 19:33N 51°27' E 000°22'0 0.0
2014-Dec-13 18:33N 51°27' E 000°22'0 0.0
2014-Dec-13 17:33N 51°27' E 000°22'0 0.0
2014-Dec-13 16:33N 51°27' E 000°22'0 0.0
2014-Dec-13 15:33N 51°27' E 000°22'0 0.0
2014-Dec-13 14:33N 51°27' E 000°22'0 0.0
2014-Dec-13 13:33N 51°27' E 000°22'0 0.0
2014-Dec-13 12:33N 51°27' E 000°22'0 0.0
2014-Dec-13 11:33N 51°27' E 000°22'0 0.0
2014-Dec-13 10:33N 51°27' E 000°22'0 0.0
2014-Dec-13 09:33N 51°27' E 000°22'0 0.0
2014-Dec-13 08:34N 51°27' E 000°22'0 0.0
2014-Dec-13 07:33N 51°27' E 000°22'0 0.0
2014-Dec-13 06:33N 51°27' E 000°22'0 0.0
2014-Dec-13 05:34N 51°27' E 000°22'0 0.0
2014-Dec-13 04:33N 51°27' E 000°22'0 0.0
2014-Dec-13 03:33N 51°27' E 000°22'0 0.0
2014-Dec-13 02:34N 51°27' E 000°22'0 0.0
2014-Dec-13 01:34N 51°27' E 000°22'0 0.0
2014-Dec-13 00:34N 51°27' E 000°22'0 0.0
2014-Dec-12 23:34N 51°27' E 000°22'0 0.0
2014-Dec-12 22:33N 51°27' E 000°22'0 0.0
2014-Dec-12 21:33N 51°27' E 000°22'0 0.0
2014-Dec-12 20:34N 51°27' E 000°22'0 0.0
2014-Dec-12 19:34N 51°27' E 000°22'0 0.0
2014-Dec-12 18:34N 51°27' E 000°22'0 0.0
2014-Dec-12 17:33N 51°27' E 000°22'0 0.0
2014-Dec-12 16:34N 51°27' E 000°22'0 0.0
2014-Dec-12 15:34N 51°27' E 000°22'0 0.0
2014-Dec-12 14:33N 51°27' E 000°22'0 0.0
2014-Dec-12 13:33N 51°27' E 000°22'0 0.0
2014-Dec-12 12:34N 51°27' E 000°22'0 0.0
2014-Dec-12 11:34N 51°27' E 000°22'0 0.0
2014-Dec-12 10:34N 51°27' E 000°22'0 0.0
2014-Dec-12 09:34N 51°27' E 000°22'0 0.0
2014-Dec-12 08:34N 51°27' E 000°22'0 0.0
2014-Dec-12 07:34N 51°27' E 000°22'0 0.0
2014-Dec-12 06:34N 51°27' E 000°22'0 0.0
2014-Dec-12 05:34N 51°27' E 000°22'0 0.0
2014-Dec-12 04:34N 51°27' E 000°22'0 0.0
2014-Dec-12 03:34N 51°27' E 000°22'0 0.0
2014-Dec-12 02:34N 51°27' E 000°22'0 0.0
2014-Dec-12 01:34N 51°27' E 000°22'0 0.0
2014-Dec-12 00:34N 51°27' E 000°22'0 0.0
2014-Dec-11 23:34N 51°27' E 000°22'0 0.0
2014-Dec-11 22:34N 51°27' E 000°22'0 0.0
2014-Dec-11 21:34N 51°27' E 000°22'0 0.0
2014-Dec-11 20:34N 51°27' E 000°22'0 0.0
2014-Dec-11 19:34N 51°27' E 000°22'0 0.5
2014-Dec-11 18:34N 51°27' E 000°23'9 8.9
2014-Dec-11 17:31N 51°30' E 000°37'1212.1
2014-Dec-11 16:34N 51°29' E 000°55'1313.0
2014-Dec-11 15:34N 51°29' E 001°16'1312.9
2014-Dec-11 14:34N 51°29' E 001°37'1414.0
2014-Dec-11 13:33N 51°26' E 001°59'1413.7
2014-Dec-11 12:33N 51°21' E 002°19'1514.6
2014-Dec-11 11:33N 51°23' E 002°42'1211.8
2014-Dec-11 10:31N 51°24' E 003°02'1313.0
2014-Dec-11 09:33N 51°25' E 003°22'1212.0
2014-Dec-11 08:33N 51°27' E 003°41'  
Track history (hours):
 
Tides and Currents Weather Stations Pressure Air Temp Water Temp Dewpoint Dewpoint Depression Visibility Wind Speed Wind Dir Waves Ship Positions

Marco Polo

Operator: Orient Lines

Last reported at 2014-Dec-21 07:33 UTC. Time now 2014-Dec-21 08:30 UTC.
Position N 51°13' E 004°24'.

Type: Ship. MMSI: 308691456.

Date/timePositionNaut miles runAvg speedWind from/ knotsBaromVisibWave heightAir tempDewpointWater temp
2014-Dec-21 07:33N 51°13' E 004°24'0 0.0
2014-Dec-21 06:33N 51°13' E 004°24'2 2.1
2014-Dec-21 05:33N 51°14' E 004°21'6 6.1
2014-Dec-21 04:34N 51°20' E 004°16'8 7.6
2014-Dec-21 03:34N 51°22' E 004°05'7 6.9
2014-Dec-21 02:32N 51°21' E 003°54'1111.1
2014-Dec-21 01:33N 51°26' E 003°38'1110.5
2014-Dec-21 00:31N 51°33' E 003°25'2311.5
2014-Dec-20 22:33N 51°56' E 003°20'1716.7
2014-Dec-20 21:33N 52°11' E 003°31'3015.1
2014-Dec-20 19:33N 52°31' E 004°08'1413.8
2014-Dec-20 18:33N 52°28' E 004°30'4 3.8
2014-Dec-20 17:34N 52°28' E 004°36'4 4.1
2014-Dec-20 16:34N 52°26' E 004°43'8 7.6
2014-Dec-20 15:34N 52°23' E 004°54'1 0.7
2014-Dec-20 14:33N 52°23' E 004°55'0 0.0
2014-Dec-20 13:33N 52°23' E 004°55'0 0.0
2014-Dec-20 12:32N 52°23' E 004°55'0 0.0
2014-Dec-20 11:32N 52°23' E 004°55'0 0.0
2014-Dec-20 10:31N 52°23' E 004°55'0 0.0
2014-Dec-20 09:28N 52°23' E 004°55'0 0.0
2014-Dec-20 08:34N 52°23' E 004°55'0 0.1
2014-Dec-20 07:33N 52°23' E 004°55'0 0.2
2014-Dec-20 07:15N 52°23' E 004°55'4 5.2
2014-Dec-20 06:33N 52°25' E 004°50'1 6.8
2014-Dec-20 06:23N 52°25' E 004°48'7 9.0
2014-Dec-20 05:34N 52°28' E 004°37'4 4.2
2014-Dec-20 04:33N 52°28' E 004°30'8 7.6
2014-Dec-20 03:33N 52°28' E 004°18'0 0.3
2014-Dec-20 02:33N 52°28' E 004°17'1110.6
2014-Dec-20 01:32N 52°28' E 003°59'8817.4
2014-Dec-19 20:27N 51°40' E 001°59'1416.1
2014-Dec-19 19:33N 51°32' E 001°40'1110.6
2014-Dec-19 18:33N 51°28' E 001°24'1312.9
2014-Dec-19 17:33N 51°30' E 001°03'1716.7
2014-Dec-19 16:34N 51°30' E 000°36'9 9.3
2014-Dec-19 15:33N 51°27' E 000°22'0 0.0
2014-Dec-19 14:33N 51°27' E 000°22'0 0.0
2014-Dec-19 13:33N 51°27' E 000°22'0 0.0
2014-Dec-19 12:33N 51°27' E 000°22'0 0.0
2014-Dec-19 11:33N 51°27' E 000°22'0 0.0
2014-Dec-19 10:33N 51°27' E 000°22'0 0.0
2014-Dec-19 09:33N 51°27' E 000°22'0 0.0
2014-Dec-19 08:33N 51°27' E 000°22'0 0.0
2014-Dec-19 07:33N 51°27' E 000°22'0 0.0
2014-Dec-19 06:34N 51°27' E 000°22'0 0.0
2014-Dec-19 05:34N 51°27' E 000°22'0 0.0
2014-Dec-19 04:34N 51°27' E 000°22'0 0.0
2014-Dec-19 03:33N 51°27' E 000°22'0 0.0
2014-Dec-19 02:33N 51°27' E 000°22'0 0.0
2014-Dec-19 01:34N 51°27' E 000°22'0 0.0
2014-Dec-19 00:34N 51°27' E 000°22'0 0.0
2014-Dec-18 23:33N 51°27' E 000°22'0 0.0
2014-Dec-18 22:34N 51°27' E 000°22'0 0.0
2014-Dec-18 21:34N 51°27' E 000°22'0 0.0
2014-Dec-18 20:33N 51°27' E 000°22'0 0.0
2014-Dec-18 19:33N 51°27' E 000°22'0 0.0
2014-Dec-18 18:34N 51°27' E 000°22'0 0.0
2014-Dec-18 17:34N 51°27' E 000°22'0 0.0
2014-Dec-18 16:34N 51°27' E 000°22'0 0.0
2014-Dec-18 15:34N 51°27' E 000°22'0 0.0
2014-Dec-18 14:33N 51°27' E 000°22'0 0.0
2014-Dec-18 13:34N 51°27' E 000°22'0 0.0
2014-Dec-18 12:34N 51°27' E 000°22'0 0.0
2014-Dec-18 11:34N 51°27' E 000°22'0 0.0
2014-Dec-18 10:34N 51°27' E 000°22'0 0.0
2014-Dec-18 09:34N 51°27' E 000°22'0 0.0
2014-Dec-18 08:34N 51°27' E 000°22'0 0.2
2014-Dec-18 07:34N 51°27' E 000°22'7 7.4
2014-Dec-18 06:33N 51°30' E 000°33'1111.2
2014-Dec-18 05:33N 51°29' E 000°51'1111.1
2014-Dec-18 04:33N 51°29' E 001°09'1212.5
2014-Dec-18 03:33N 51°27' E 001°28'9 9.5
2014-Dec-18 02:34N 51°29' E 001°43'1312.8
2014-Dec-18 01:34N 51°25' E 002°02'1312.7
2014-Dec-18 00:33N 51°22' E 002°22'1312.7
2014-Dec-17 23:34N 51°23' E 002°42'2612.8
2014-Dec-17 21:31N 51°25' E 003°24'1111.1
2014-Dec-17 20:34N 51°26' E 003°41'8 8.3
2014-Dec-17 19:33N 51°20' E 003°49'3 2.5
2014-Dec-17 18:33N 51°17' E 003°50'7 6.9
2014-Dec-17 17:32N 51°10' E 003°48'6 6.2
2014-Dec-17 16:33N 51°05' E 003°44'0 0.3
2014-Dec-17 15:32N 51°05' E 003°44'0 0.0
2014-Dec-17 14:33N 51°05' E 003°44'0 0.0
2014-Dec-17 13:32N 51°05' E 003°44'0 0.0
2014-Dec-17 12:32N 51°05' E 003°44'0 0.0
2014-Dec-17 11:32N 51°05' E 003°44'0 0.0
2014-Dec-17 10:32N 51°05' E 003°44'0 0.0
2014-Dec-17 09:31N 51°05' E 003°44'0 0.0
2014-Dec-17 08:31N 51°05' E 003°44'0 0.0
2014-Dec-17 07:31N 51°05' E 003°44'0 0.0
2014-Dec-17 06:33N 51°05' E 003°44'0 0.5
2014-Dec-17 05:33N 51°05' E 003°44'7 6.7
2014-Dec-17 04:33N 51°11' E 003°48'8 7.5
2014-Dec-17 03:33N 51°19' E 003°50'3 3.0
2014-Dec-17 02:33N 51°21' E 003°47'9 8.7
2014-Dec-17 01:33N 51°26' E 003°36'10 9.9
2014-Dec-17 00:33N 51°34' E 003°25'1211.3
2014-Dec-16 23:30N 51°43' E 003°14'4912.5
2014-Dec-16 19:33N 52°28' E 003°47'1313.3
2014-Dec-16 18:33N 52°31' E 004°08'1212.2
2014-Dec-16 17:33N 52°29' E 004°28'4 4.0
2014-Dec-16 16:32N 52°28' E 004°34'0 0.0
2014-Dec-16 15:31N 52°28' E 004°34'0 0.0
2014-Dec-16 14:31N 52°28' E 004°34'0 0.0
2014-Dec-16 13:31N 52°28' E 004°34'0 0.0
2014-Dec-16 12:34N 52°28' E 004°34'0 0.0
2014-Dec-16 11:33N 52°28' E 004°34'0 0.0
2014-Dec-16 10:33N 52°28' E 004°34'0 0.0
2014-Dec-16 09:33N 52°28' E 004°34'0 0.0
2014-Dec-16 08:33N 52°28' E 004°34'0 0.0
2014-Dec-16 07:33N 52°28' E 004°34'0 0.0
2014-Dec-16 06:33N 52°28' E 004°34'0 0.2
2014-Dec-16 05:33N 52°28' E 004°34'10 9.8
2014-Dec-16 04:33N 52°29' E 004°18'1312.8
2014-Dec-16 03:32N 52°27' E 003°57'7913.2
2014-Dec-15 21:33N 51°51' E 002°02'1313.0
2014-Dec-15 20:33N 51°41' E 001°49'1414.4
2014-Dec-15 19:34N 51°29' E 001°36'1614.2
2014-Dec-15 18:27N 51°29' E 001°10'1314.8
2014-Dec-15 17:33N 51°29' E 000°49'1413.7
2014-Dec-15 16:34N 51°28' E 000°27'4 3.6
2014-Dec-15 15:34N 51°27' E 000°22'0 0.0
2014-Dec-15 14:34N 51°27' E 000°22'0 0.0
2014-Dec-15 13:34N 51°27' E 000°22'0 0.0
2014-Dec-15 12:33N 51°27' E 000°22'0 0.0
2014-Dec-15 11:34N 51°27' E 000°22'0 0.0
2014-Dec-15 10:33N 51°27' E 000°22'0 0.0
2014-Dec-15 09:34N 51°27' E 000°22'0 0.0
2014-Dec-15 08:34N 51°27' E 000°22'0 0.0
2014-Dec-15 07:34N 51°27' E 000°22'0 0.0
2014-Dec-15 06:34N 51°27' E 000°22'0 0.0
2014-Dec-15 05:34N 51°27' E 000°22'0 0.0
2014-Dec-15 04:34N 51°27' E 000°22'0 0.0
2014-Dec-15 03:34N 51°27' E 000°22'0 0.0
2014-Dec-15 02:34N 51°27' E 000°22'0 0.0
2014-Dec-15 01:34N 51°27' E 000°22'0 0.0
2014-Dec-15 00:34N 51°27' E 000°22'0 0.0
2014-Dec-14 23:34N 51°27' E 000°22'0 0.0
2014-Dec-14 22:34N 51°27' E 000°22'0 0.0
2014-Dec-14 21:34N 51°27' E 000°22'0 0.0
2014-Dec-14 20:34N 51°27' E 000°22'0 0.0
2014-Dec-14 19:34N 51°27' E 000°22'0 0.0
2014-Dec-14 18:33N 51°27' E 000°22'0 0.0
2014-Dec-14 17:33N 51°27' E 000°22'0 0.0
2014-Dec-14 16:33N 51°27' E 000°22'0 0.0
2014-Dec-14 15:33N 51°27' E 000°22'0 0.0
2014-Dec-14 14:33N 51°27' E 000°22'0 0.0
2014-Dec-14 13:33N 51°27' E 000°22'0 0.0
2014-Dec-14 12:33N 51°27' E 000°22'0 0.0
2014-Dec-14 11:34N 51°27' E 000°22'0 0.0
2014-Dec-14 10:33N 51°27' E 000°22'0 0.0
2014-Dec-14 09:33N 51°27' E 000°22'0 0.0
2014-Dec-14 08:33N 51°27' E 000°22'0 0.0
2014-Dec-14 07:33N 51°27' E 000°22'0 0.0
2014-Dec-14 06:33N 51°27' E 000°22'0 0.0
2014-Dec-14 05:33N 51°27' E 000°22'0 0.0
2014-Dec-14 04:33N 51°27' E 000°22'0 0.0
2014-Dec-14 03:33N 51°27' E 000°22'0 0.0
2014-Dec-14 02:33N 51°27' E 000°22'0 0.0
2014-Dec-14 01:33N 51°27' E 000°22'0 0.0
2014-Dec-14 00:33N 51°27' E 000°22'0 0.0
2014-Dec-13 23:33N 51°27' E 000°22'0 0.0
2014-Dec-13 22:33N 51°27' E 000°22'0 0.0
2014-Dec-13 21:33N 51°27' E 000°22'0 0.0
2014-Dec-13 20:33N 51°27' E 000°22'0 0.0
2014-Dec-13 19:33N 51°27' E 000°22'0 0.0
2014-Dec-13 18:33N 51°27' E 000°22'0 0.0
2014-Dec-13 17:33N 51°27' E 000°22'0 0.0
2014-Dec-13 16:33N 51°27' E 000°22'0 0.0
2014-Dec-13 15:33N 51°27' E 000°22'0 0.0
2014-Dec-13 14:33N 51°27' E 000°22'0 0.0
2014-Dec-13 13:33N 51°27' E 000°22'0 0.0
2014-Dec-13 12:33N 51°27' E 000°22'0 0.0
2014-Dec-13 11:33N 51°27' E 000°22'0 0.0
2014-Dec-13 10:33N 51°27' E 000°22'0 0.0
2014-Dec-13 09:33N 51°27' E 000°22'0 0.0
2014-Dec-13 08:34N 51°27' E 000°22'0 0.0
2014-Dec-13 07:33N 51°27' E 000°22'0 0.0
2014-Dec-13 06:33N 51°27' E 000°22'0 0.0
2014-Dec-13 05:34N 51°27' E 000°22'0 0.0
2014-Dec-13 04:33N 51°27' E 000°22'0 0.0
2014-Dec-13 03:33N 51°27' E 000°22'0 0.0
2014-Dec-13 02:34N 51°27' E 000°22'0 0.0
2014-Dec-13 01:34N 51°27' E 000°22'0 0.0
2014-Dec-13 00:34N 51°27' E 000°22'0 0.0
2014-Dec-12 23:34N 51°27' E 000°22'0 0.0
2014-Dec-12 22:33N 51°27' E 000°22'0 0.0
2014-Dec-12 21:33N 51°27' E 000°22'0 0.0
2014-Dec-12 20:34N 51°27' E 000°22'0 0.0
2014-Dec-12 19:34N 51°27' E 000°22'0 0.0
2014-Dec-12 18:34N 51°27' E 000°22'0 0.0
2014-Dec-12 17:33N 51°27' E 000°22'0 0.0
2014-Dec-12 16:34N 51°27' E 000°22'0 0.0
2014-Dec-12 15:34N 51°27' E 000°22'0 0.0
2014-Dec-12 14:33N 51°27' E 000°22'0 0.0
2014-Dec-12 13:33N 51°27' E 000°22'0 0.0
2014-Dec-12 12:34N 51°27' E 000°22'0 0.0
2014-Dec-12 11:34N 51°27' E 000°22'0 0.0
2014-Dec-12 10:34N 51°27' E 000°22'0 0.0
2014-Dec-12 09:34N 51°27' E 000°22'0 0.0
2014-Dec-12 08:34N 51°27' E 000°22'0 0.0
2014-Dec-12 07:34N 51°27' E 000°22'0 0.0
2014-Dec-12 06:34N 51°27' E 000°22'0 0.0
2014-Dec-12 05:34N 51°27' E 000°22'0 0.0
2014-Dec-12 04:34N 51°27' E 000°22'0 0.0
2014-Dec-12 03:34N 51°27' E 000°22'0 0.0
2014-Dec-12 02:34N 51°27' E 000°22'0 0.0
2014-Dec-12 01:34N 51°27' E 000°22'0 0.0
2014-Dec-12 00:34N 51°27' E 000°22'0 0.0
2014-Dec-11 23:34N 51°27' E 000°22'0 0.0
2014-Dec-11 22:34N 51°27' E 000°22'0 0.0
2014-Dec-11 21:34N 51°27' E 000°22'0 0.0
2014-Dec-11 20:34N 51°27' E 000°22'0 0.0
2014-Dec-11 19:34N 51°27' E 000°22'0 0.5
2014-Dec-11 18:34N 51°27' E 000°23'9 8.9
2014-Dec-11 17:31N 51°30' E 000°37'1212.1
2014-Dec-11 16:34N 51°29' E 000°55'1313.0
2014-Dec-11 15:34N 51°29' E 001°16'1312.9
2014-Dec-11 14:34N 51°29' E 001°37'1414.0
2014-Dec-11 13:33N 51°26' E 001°59'1413.7
2014-Dec-11 12:33N 51°21' E 002°19'1514.6
2014-Dec-11 11:33N 51°23' E 002°42'1211.8
2014-Dec-11 10:31N 51°24' E 003°02'1313.0
2014-Dec-11 09:33N 51°25' E 003°22'1212.0
2014-Dec-11 08:33N 51°27' E 003°41'  

Dump ship's entire track history